sensor_id;sensor_type;location;lat;lon;timestamp;temperature;humidity
42965;DHT22;28604;51.204;22.552;2024-01-30T00:01:23;1.10;91.00
42965;DHT22;28604;51.204;22.552;2024-01-30T00:03:49;1.10;91.30
42965;DHT22;28604;51.204;22.552;2024-01-30T00:06:18;1.00;91.20
42965;DHT22;28604;51.204;22.552;2024-01-30T00:08:45;1.00;91.40
42965;DHT22;28604;51.204;22.552;2024-01-30T00:11:14;1.00;91.50
42965;DHT22;28604;51.204;22.552;2024-01-30T00:13:41;1.00;91.20
42965;DHT22;28604;51.204;22.552;2024-01-30T00:16:07;1.00;91.10
42965;DHT22;28604;51.204;22.552;2024-01-30T00:18:36;1.00;91.20
42965;DHT22;28604;51.204;22.552;2024-01-30T00:21:02;1.00;91.30
42965;DHT22;28604;51.204;22.552;2024-01-30T00:23:29;1.00;91.20
42965;DHT22;28604;51.204;22.552;2024-01-30T00:25:54;1.00;91.30
42965;DHT22;28604;51.204;22.552;2024-01-30T00:28:21;0.90;91.30
42965;DHT22;28604;51.204;22.552;2024-01-30T00:30:47;1.00;91.10
42965;DHT22;28604;51.204;22.552;2024-01-30T00:33:13;1.00;91.20
42965;DHT22;28604;51.204;22.552;2024-01-30T00:35:39;0.90;91.20
42965;DHT22;28604;51.204;22.552;2024-01-30T00:38:05;0.90;91.10
42965;DHT22;28604;51.204;22.552;2024-01-30T00:40:32;0.90;91.10
42965;DHT22;28604;51.204;22.552;2024-01-30T00:42:58;0.90;91.10
42965;DHT22;28604;51.204;22.552;2024-01-30T00:45:24;0.90;91.10
42965;DHT22;28604;51.204;22.552;2024-01-30T00:47:50;0.90;91.10
42965;DHT22;28604;51.204;22.552;2024-01-30T00:50:16;0.80;91.20
42965;DHT22;28604;51.204;22.552;2024-01-30T00:52:42;0.80;91.10
42965;DHT22;28604;51.204;22.552;2024-01-30T00:55:10;0.80;91.20
42965;DHT22;28604;51.204;22.552;2024-01-30T00:57:37;0.80;91.10
42965;DHT22;28604;51.204;22.552;2024-01-30T01:00:03;0.70;91.30
42965;DHT22;28604;51.204;22.552;2024-01-30T01:02:31;0.70;91.20
42965;DHT22;28604;51.204;22.552;2024-01-30T01:04:57;0.70;91.20
42965;DHT22;28604;51.204;22.552;2024-01-30T01:07:23;0.70;91.10
42965;DHT22;28604;51.204;22.552;2024-01-30T01:09:49;0.70;91.10
42965;DHT22;28604;51.204;22.552;2024-01-30T01:12:15;0.70;91.20
42965;DHT22;28604;51.204;22.552;2024-01-30T01:14:41;0.70;91.40
42965;DHT22;28604;51.204;22.552;2024-01-30T01:17:07;0.70;91.80
42965;DHT22;28604;51.204;22.552;2024-01-30T01:19:33;0.70;91.30
42965;DHT22;28604;51.204;22.552;2024-01-30T01:21:59;0.70;91.40
42965;DHT22;28604;51.204;22.552;2024-01-30T01:24:25;0.60;91.40
42965;DHT22;28604;51.204;22.552;2024-01-30T01:26:51;0.60;91.30
42965;DHT22;28604;51.204;22.552;2024-01-30T01:29:17;0.60;91.90
42965;DHT22;28604;51.204;22.552;2024-01-30T01:31:43;0.60;91.30
42965;DHT22;28604;51.204;22.552;2024-01-30T01:34:10;0.60;91.00
42965;DHT22;28604;51.204;22.552;2024-01-30T01:36:36;0.60;91.20
42965;DHT22;28604;51.204;22.552;2024-01-30T01:39:02;0.60;91.30
42965;DHT22;28604;51.204;22.552;2024-01-30T01:41:32;0.60;91.20
42965;DHT22;28604;51.204;22.552;2024-01-30T01:43:59;0.60;91.20
42965;DHT22;28604;51.204;22.552;2024-01-30T01:46:30;0.50;91.20
42965;DHT22;28604;51.204;22.552;2024-01-30T01:48:56;0.60;91.30
42965;DHT22;28604;51.204;22.552;2024-01-30T01:51:26;0.60;91.20
42965;DHT22;28604;51.204;22.552;2024-01-30T01:53:53;0.60;91.40
42965;DHT22;28604;51.204;22.552;2024-01-30T01:56:20;0.60;91.20
42965;DHT22;28604;51.204;22.552;2024-01-30T01:58:47;0.60;91.30
42965;DHT22;28604;51.204;22.552;2024-01-30T02:01:20;0.60;91.10
42965;DHT22;28604;51.204;22.552;2024-01-30T02:03:47;0.50;91.00
42965;DHT22;28604;51.204;22.552;2024-01-30T02:06:16;0.50;91.20
42965;DHT22;28604;51.204;22.552;2024-01-30T02:08:42;0.60;90.90
42965;DHT22;28604;51.204;22.552;2024-01-30T02:11:09;0.60;90.80
42965;DHT22;28604;51.204;22.552;2024-01-30T02:13:38;0.50;90.70
42965;DHT22;28604;51.204;22.552;2024-01-30T02:16:05;0.50;90.80
42965;DHT22;28604;51.204;22.552;2024-01-30T02:18:30;0.50;91.10
42965;DHT22;28604;51.204;22.552;2024-01-30T02:20:58;0.50;90.90
42965;DHT22;28604;51.204;22.552;2024-01-30T02:23:27;0.50;91.00
42965;DHT22;28604;51.204;22.552;2024-01-30T02:25:53;0.50;91.10
42965;DHT22;28604;51.204;22.552;2024-01-30T02:28:20;0.50;91.30
42965;DHT22;28604;51.204;22.552;2024-01-30T02:30:46;0.50;91.20
42965;DHT22;28604;51.204;22.552;2024-01-30T02:33:12;0.50;91.10
42965;DHT22;28604;51.204;22.552;2024-01-30T02:35:39;0.50;91.40
42965;DHT22;28604;51.204;22.552;2024-01-30T02:38:05;0.50;91.10
42965;DHT22;28604;51.204;22.552;2024-01-30T02:40:31;0.50;91.20
42965;DHT22;28604;51.204;22.552;2024-01-30T02:43:02;0.50;91.10
42965;DHT22;28604;51.204;22.552;2024-01-30T02:45:28;0.50;91.20
42965;DHT22;28604;51.204;22.552;2024-01-30T02:47:54;0.50;91.00
42965;DHT22;28604;51.204;22.552;2024-01-30T02:50:20;0.50;91.10
42965;DHT22;28604;51.204;22.552;2024-01-30T02:52:46;0.50;91.50
42965;DHT22;28604;51.204;22.552;2024-01-30T02:55:12;0.50;91.10
42965;DHT22;28604;51.204;22.552;2024-01-30T02:57:39;0.60;91.30
42965;DHT22;28604;51.204;22.552;2024-01-30T03:00:05;0.50;91.10
42965;DHT22;28604;51.204;22.552;2024-01-30T03:02:32;0.50;91.10
42965;DHT22;28604;51.204;22.552;2024-01-30T03:04:59;0.60;91.10
42965;DHT22;28604;51.204;22.552;2024-01-30T03:07:26;0.50;91.40
42965;DHT22;28604;51.204;22.552;2024-01-30T03:09:52;0.50;91.00
42965;DHT22;28604;51.204;22.552;2024-01-30T03:12:18;0.50;90.90
42965;DHT22;28604;51.204;22.552;2024-01-30T03:14:44;0.50;90.90
42965;DHT22;28604;51.204;22.552;2024-01-30T03:17:10;0.50;91.00
42965;DHT22;28604;51.204;22.552;2024-01-30T03:19:36;0.50;91.30
42965;DHT22;28604;51.204;22.552;2024-01-30T03:22:01;0.50;91.00
42965;DHT22;28604;51.204;22.552;2024-01-30T03:24:27;0.50;91.10
42965;DHT22;28604;51.204;22.552;2024-01-30T03:26:53;0.50;91.00
42965;DHT22;28604;51.204;22.552;2024-01-30T03:29:19;0.50;91.00
42965;DHT22;28604;51.204;22.552;2024-01-30T03:31:45;0.50;90.90
42965;DHT22;28604;51.204;22.552;2024-01-30T03:34:11;0.50;90.90
42965;DHT22;28604;51.204;22.552;2024-01-30T03:36:37;0.50;91.00
42965;DHT22;28604;51.204;22.552;2024-01-30T03:39:03;0.50;90.80
42965;DHT22;28604;51.204;22.552;2024-01-30T03:41:29;0.50;90.80
42965;DHT22;28604;51.204;22.552;2024-01-30T03:43:55;0.60;90.80
42965;DHT22;28604;51.204;22.552;2024-01-30T03:46:21;0.50;91.00
42965;DHT22;28604;51.204;22.552;2024-01-30T03:48:47;0.50;90.90
42965;DHT22;28604;51.204;22.552;2024-01-30T03:51:12;0.50;91.00
42965;DHT22;28604;51.204;22.552;2024-01-30T03:53:43;0.50;90.60
42965;DHT22;28604;51.204;22.552;2024-01-30T03:56:11;0.40;90.70
42965;DHT22;28604;51.204;22.552;2024-01-30T03:58:37;0.40;90.70
42965;DHT22;28604;51.204;22.552;2024-01-30T04:01:03;0.40;90.70
42965;DHT22;28604;51.204;22.552;2024-01-30T04:03:29;0.40;90.80
42965;DHT22;28604;51.204;22.552;2024-01-30T04:05:55;0.40;90.90
42965;DHT22;28604;51.204;22.552;2024-01-30T04:08:21;0.30;90.70
42965;DHT22;28604;51.204;22.552;2024-01-30T04:10:47;0.30;90.90
42965;DHT22;28604;51.204;22.552;2024-01-30T04:13:13;0.30;90.70
42965;DHT22;28604;51.204;22.552;2024-01-30T04:15:39;0.30;90.70
42965;DHT22;28604;51.204;22.552;2024-01-30T04:18:05;0.30;90.70
42965;DHT22;28604;51.204;22.552;2024-01-30T04:20:31;0.30;90.70
42965;DHT22;28604;51.204;22.552;2024-01-30T04:22:57;0.40;90.70
42965;DHT22;28604;51.204;22.552;2024-01-30T04:25:23;0.30;90.60
42965;DHT22;28604;51.204;22.552;2024-01-30T04:27:49;0.30;90.70
42965;DHT22;28604;51.204;22.552;2024-01-30T04:30:15;0.30;90.60
42965;DHT22;28604;51.204;22.552;2024-01-30T04:32:42;0.30;90.60
42965;DHT22;28604;51.204;22.552;2024-01-30T04:35:08;0.30;90.70
42965;DHT22;28604;51.204;22.552;2024-01-30T04:37:34;0.30;90.60
42965;DHT22;28604;51.204;22.552;2024-01-30T04:40:00;0.30;90.60
42965;DHT22;28604;51.204;22.552;2024-01-30T04:42:26;0.30;90.80
42965;DHT22;28604;51.204;22.552;2024-01-30T04:44:52;0.30;90.60
42965;DHT22;28604;51.204;22.552;2024-01-30T04:47:18;0.20;90.60
42965;DHT22;28604;51.204;22.552;2024-01-30T04:49:44;0.30;90.70
42965;DHT22;28604;51.204;22.552;2024-01-30T04:52:10;0.20;90.70
42965;DHT22;28604;51.204;22.552;2024-01-30T04:54:36;0.30;90.80
42965;DHT22;28604;51.204;22.552;2024-01-30T04:57:02;0.30;90.60
42965;DHT22;28604;51.204;22.552;2024-01-30T04:59:28;0.20;90.70
42965;DHT22;28604;51.204;22.552;2024-01-30T05:01:54;0.20;90.60
42965;DHT22;28604;51.204;22.552;2024-01-30T05:04:20;0.20;90.60
42965;DHT22;28604;51.204;22.552;2024-01-30T05:06:47;0.20;90.60
42965;DHT22;28604;51.204;22.552;2024-01-30T05:09:13;0.30;90.90
42965;DHT22;28604;51.204;22.552;2024-01-30T05:11:40;0.20;90.60
42965;DHT22;28604;51.204;22.552;2024-01-30T05:14:06;0.20;90.50
42965;DHT22;28604;51.204;22.552;2024-01-30T05:16:33;0.20;90.60
42965;DHT22;28604;51.204;22.552;2024-01-30T05:18:59;0.20;90.50
42965;DHT22;28604;51.204;22.552;2024-01-30T05:21:25;0.20;90.60
42965;DHT22;28604;51.204;22.552;2024-01-30T05:23:51;0.20;90.60
42965;DHT22;28604;51.204;22.552;2024-01-30T05:26:17;0.20;90.60
42965;DHT22;28604;51.204;22.552;2024-01-30T05:28:43;0.20;90.60
42965;DHT22;28604;51.204;22.552;2024-01-30T05:31:10;0.20;90.80
42965;DHT22;28604;51.204;22.552;2024-01-30T05:33:36;0.20;90.70
42965;DHT22;28604;51.204;22.552;2024-01-30T05:36:03;0.20;90.80
42965;DHT22;28604;51.204;22.552;2024-01-30T05:38:29;0.10;90.70
42965;DHT22;28604;51.204;22.552;2024-01-30T05:40:56;0.10;90.60
42965;DHT22;28604;51.204;22.552;2024-01-30T05:43:23;0.20;90.50
42965;DHT22;28604;51.204;22.552;2024-01-30T05:45:50;0.20;90.70
42965;DHT22;28604;51.204;22.552;2024-01-30T05:48:17;0.10;90.80
42965;DHT22;28604;51.204;22.552;2024-01-30T05:50:43;0.20;90.70
42965;DHT22;28604;51.204;22.552;2024-01-30T05:53:08;0.10;90.60
42965;DHT22;28604;51.204;22.552;2024-01-30T05:55:35;0.20;91.00
42965;DHT22;28604;51.204;22.552;2024-01-30T05:58:00;0.10;90.70
42965;DHT22;28604;51.204;22.552;2024-01-30T06:00:27;0.20;90.50
42965;DHT22;28604;51.204;22.552;2024-01-30T06:02:52;0.20;90.60
42965;DHT22;28604;51.204;22.552;2024-01-30T06:05:18;0.20;90.70
42965;DHT22;28604;51.204;22.552;2024-01-30T06:07:44;0.20;90.60
42965;DHT22;28604;51.204;22.552;2024-01-30T06:10:10;0.20;90.80
42965;DHT22;28604;51.204;22.552;2024-01-30T06:12:37;0.20;90.70
42965;DHT22;28604;51.204;22.552;2024-01-30T06:15:04;0.20;90.80
42965;DHT22;28604;51.204;22.552;2024-01-30T06:17:30;0.20;90.80
42965;DHT22;28604;51.204;22.552;2024-01-30T06:19:56;0.20;91.00
42965;DHT22;28604;51.204;22.552;2024-01-30T06:22:22;0.20;90.80
42965;DHT22;28604;51.204;22.552;2024-01-30T06:24:48;0.20;90.80
42965;DHT22;28604;51.204;22.552;2024-01-30T06:27:14;0.30;91.00
42965;DHT22;28604;51.204;22.552;2024-01-30T06:29:42;0.30;90.80
42965;DHT22;28604;51.204;22.552;2024-01-30T06:32:08;0.30;90.70
42965;DHT22;28604;51.204;22.552;2024-01-30T06:34:35;0.30;90.80
42965;DHT22;28604;51.204;22.552;2024-01-30T06:37:00;0.30;90.80
42965;DHT22;28604;51.204;22.552;2024-01-30T06:39:26;0.30;90.80
42965;DHT22;28604;51.204;22.552;2024-01-30T06:41:52;0.40;90.80
42965;DHT22;28604;51.204;22.552;2024-01-30T06:44:19;0.40;90.80
42965;DHT22;28604;51.204;22.552;2024-01-30T06:46:44;0.40;90.80
42965;DHT22;28604;51.204;22.552;2024-01-30T06:49:11;0.40;90.80
42965;DHT22;28604;51.204;22.552;2024-01-30T06:51:36;0.50;90.80
42965;DHT22;28604;51.204;22.552;2024-01-30T06:54:03;0.60;91.00
42965;DHT22;28604;51.204;22.552;2024-01-30T06:56:29;0.70;91.10
42965;DHT22;28604;51.204;22.552;2024-01-30T06:58:55;0.90;91.30
42965;DHT22;28604;51.204;22.552;2024-01-30T07:01:28;1.10;91.20
42965;DHT22;28604;51.204;22.552;2024-01-30T07:03:55;1.40;91.20
42965;DHT22;28604;51.204;22.552;2024-01-30T07:06:21;1.70;91.20
42965;DHT22;28604;51.204;22.552;2024-01-30T07:08:49;2.00;90.90
42965;DHT22;28604;51.204;22.552;2024-01-30T07:11:19;2.20;90.70
42965;DHT22;28604;51.204;22.552;2024-01-30T07:13:46;2.50;90.50
42965;DHT22;28604;51.204;22.552;2024-01-30T07:16:12;2.90;90.40
42965;DHT22;28604;51.204;22.552;2024-01-30T07:18:38;3.20;89.30
42965;DHT22;28604;51.204;22.552;2024-01-30T07:21:04;3.50;90.00
42965;DHT22;28604;51.204;22.552;2024-01-30T07:23:30;3.70;88.50
42965;DHT22;28604;51.204;22.552;2024-01-30T07:25:56;4.00;88.50
42965;DHT22;28604;51.204;22.552;2024-01-30T07:28:22;4.30;87.70
42965;DHT22;28604;51.204;22.552;2024-01-30T07:30:51;4.50;87.50
42965;DHT22;28604;51.204;22.552;2024-01-30T07:33:18;4.80;86.50
42965;DHT22;28604;51.204;22.552;2024-01-30T07:35:45;5.00;85.50
42965;DHT22;28604;51.204;22.552;2024-01-30T07:38:11;5.30;86.20
42965;DHT22;28604;51.204;22.552;2024-01-30T07:40:37;5.50;85.70
42965;DHT22;28604;51.204;22.552;2024-01-30T07:43:03;5.80;84.20
42965;DHT22;28604;51.204;22.552;2024-01-30T07:45:29;6.00;83.30
42965;DHT22;28604;51.204;22.552;2024-01-30T07:47:59;6.30;82.80
42965;DHT22;28604;51.204;22.552;2024-01-30T07:50:28;6.60;81.60
42965;DHT22;28604;51.204;22.552;2024-01-30T07:52:55;6.80;81.90
42965;DHT22;28604;51.204;22.552;2024-01-30T07:55:22;7.00;82.20
42965;DHT22;28604;51.204;22.552;2024-01-30T07:57:55;7.20;83.20
42965;DHT22;28604;51.204;22.552;2024-01-30T08:00:21;7.40;81.40
42965;DHT22;28604;51.204;22.552;2024-01-30T08:02:48;7.50;81.20
42965;DHT22;28604;51.204;22.552;2024-01-30T08:05:14;7.70;80.80
42965;DHT22;28604;51.204;22.552;2024-01-30T08:07:41;7.80;80.50
42965;DHT22;28604;51.204;22.552;2024-01-30T08:10:12;8.00;78.60
42965;DHT22;28604;51.204;22.552;2024-01-30T08:12:39;8.20;80.30
42965;DHT22;28604;51.204;22.552;2024-01-30T08:15:05;8.30;79.50
42965;DHT22;28604;51.204;22.552;2024-01-30T08:17:31;8.50;78.70
42965;DHT22;28604;51.204;22.552;2024-01-30T08:19:57;8.60;78.50
42965;DHT22;28604;51.204;22.552;2024-01-30T08:22:23;8.70;77.20
42965;DHT22;28604;51.204;22.552;2024-01-30T08:24:49;8.90;79.10
42965;DHT22;28604;51.204;22.552;2024-01-30T08:27:15;9.10;76.90
42965;DHT22;28604;51.204;22.552;2024-01-30T08:29:41;9.20;77.00
42965;DHT22;28604;51.204;22.552;2024-01-30T08:32:07;9.40;77.80
42965;DHT22;28604;51.204;22.552;2024-01-30T08:34:33;9.50;76.70
42965;DHT22;28604;51.204;22.552;2024-01-30T08:37:00;9.60;75.60
42965;DHT22;28604;51.204;22.552;2024-01-30T08:39:26;9.80;75.30
42965;DHT22;28604;51.204;22.552;2024-01-30T08:41:52;9.90;74.20
42965;DHT22;28604;51.204;22.552;2024-01-30T08:44:17;10.00;75.00
42965;DHT22;28604;51.204;22.552;2024-01-30T08:46:46;10.20;74.30
42965;DHT22;28604;51.204;22.552;2024-01-30T08:49:13;10.30;73.50
42965;DHT22;28604;51.204;22.552;2024-01-30T08:51:39;10.40;73.70
42965;DHT22;28604;51.204;22.552;2024-01-30T08:54:05;10.60;73.20
42965;DHT22;28604;51.204;22.552;2024-01-30T08:56:31;10.60;70.10
42965;DHT22;28604;51.204;22.552;2024-01-30T08:58:57;10.70;71.90
42965;DHT22;28604;51.204;22.552;2024-01-30T09:01:25;10.90;72.90
42965;DHT22;28604;51.204;22.552;2024-01-30T09:03:50;11.10;72.00
42965;DHT22;28604;51.204;22.552;2024-01-30T09:06:17;11.20;72.90
42965;DHT22;28604;51.204;22.552;2024-01-30T09:08:43;11.40;72.00
42965;DHT22;28604;51.204;22.552;2024-01-30T09:11:11;11.50;71.20
42965;DHT22;28604;51.204;22.552;2024-01-30T09:13:37;11.60;70.50
42965;DHT22;28604;51.204;22.552;2024-01-30T09:16:04;11.70;70.50
42965;DHT22;28604;51.204;22.552;2024-01-30T09:18:30;11.80;69.80
42965;DHT22;28604;51.204;22.552;2024-01-30T09:20:56;11.90;69.50
42965;DHT22;28604;51.204;22.552;2024-01-30T09:23:22;12.10;68.30
42965;DHT22;28604;51.204;22.552;2024-01-30T09:25:48;12.20;69.70
42965;DHT22;28604;51.204;22.552;2024-01-30T09:28:14;12.20;69.50
42965;DHT22;28604;51.204;22.552;2024-01-30T09:30:40;12.30;65.50
42965;DHT22;28604;51.204;22.552;2024-01-30T09:33:07;12.50;66.70
42965;DHT22;28604;51.204;22.552;2024-01-30T09:35:33;12.60;67.90
42965;DHT22;28604;51.204;22.552;2024-01-30T09:37:59;12.60;67.80
42965;DHT22;28604;51.204;22.552;2024-01-30T09:40:25;12.70;67.40
42965;DHT22;28604;51.204;22.552;2024-01-30T09:42:51;12.80;66.90
42965;DHT22;28604;51.204;22.552;2024-01-30T09:45:18;12.80;66.30
42965;DHT22;28604;51.204;22.552;2024-01-30T09:47:45;12.90;67.40
42965;DHT22;28604;51.204;22.552;2024-01-30T09:52:57;12.90;65.00
42965;DHT22;28604;51.204;22.552;2024-01-30T09:55:24;13.00;64.90
42965;DHT22;28604;51.204;22.552;2024-01-30T09:57:50;13.10;67.60
42965;DHT22;28604;51.204;22.552;2024-01-30T10:00:16;13.10;65.00
42965;DHT22;28604;51.204;22.552;2024-01-30T10:02:43;13.20;66.70
42965;DHT22;28604;51.204;22.552;2024-01-30T10:05:09;13.30;66.20
42965;DHT22;28604;51.204;22.552;2024-01-30T10:07:36;13.30;65.60
42965;DHT22;28604;51.204;22.552;2024-01-30T10:10:02;13.30;66.20
42965;DHT22;28604;51.204;22.552;2024-01-30T10:12:29;13.30;65.00
42965;DHT22;28604;51.204;22.552;2024-01-30T10:14:56;13.30;66.30
42965;DHT22;28604;51.204;22.552;2024-01-30T10:17:25;13.20;65.40
42965;DHT22;28604;51.204;22.552;2024-01-30T10:19:51;13.20;65.80
42965;DHT22;28604;51.204;22.552;2024-01-30T10:22:17;13.10;65.80
42965;DHT22;28604;51.204;22.552;2024-01-30T10:24:43;13.10;64.10
42965;DHT22;28604;51.204;22.552;2024-01-30T10:27:11;13.20;64.30
42965;DHT22;28604;51.204;22.552;2024-01-30T10:29:37;13.20;65.00
42965;DHT22;28604;51.204;22.552;2024-01-30T10:32:04;13.20;64.90
42965;DHT22;28604;51.204;22.552;2024-01-30T10:34:31;13.10;62.80
42965;DHT22;28604;51.204;22.552;2024-01-30T10:37:07;13.10;64.90
42965;DHT22;28604;51.204;22.552;2024-01-30T10:39:45;13.00;64.10
42965;DHT22;28604;51.204;22.552;2024-01-30T10:42:20;13.00;63.90
42965;DHT22;28604;51.204;22.552;2024-01-30T10:45:00;13.00;61.00
42965;DHT22;28604;51.204;22.552;2024-01-30T10:47:28;12.90;62.50
42965;DHT22;28604;51.204;22.552;2024-01-30T10:52:36;12.90;62.80
42965;DHT22;28604;51.204;22.552;2024-01-30T10:55:04;12.90;63.60
42965;DHT22;28604;51.204;22.552;2024-01-30T10:57:34;12.80;63.30
42965;DHT22;28604;51.204;22.552;2024-01-30T11:00:02;12.90;62.80
42965;DHT22;28604;51.204;22.552;2024-01-30T11:02:32;12.90;64.80
42965;DHT22;28604;51.204;22.552;2024-01-30T11:04:59;12.90;63.90
42965;DHT22;28604;51.204;22.552;2024-01-30T11:07:26;12.80;62.60
42965;DHT22;28604;51.204;22.552;2024-01-30T11:12:24;12.80;64.00
42965;DHT22;28604;51.204;22.552;2024-01-30T11:15:05;12.80;65.00
42965;DHT22;28604;51.204;22.552;2024-01-30T11:17:51;12.70;62.90
42965;DHT22;28604;51.204;22.552;2024-01-30T11:22:51;12.60;63.70
42965;DHT22;28604;51.204;22.552;2024-01-30T11:25:20;12.70;64.70
42965;DHT22;28604;51.204;22.552;2024-01-30T11:27:46;12.70;64.70
42965;DHT22;28604;51.204;22.552;2024-01-30T11:30:32;12.70;63.70
42965;DHT22;28604;51.204;22.552;2024-01-30T11:33:06;12.70;64.00
42965;DHT22;28604;51.204;22.552;2024-01-30T11:35:34;12.70;64.40
42965;DHT22;28604;51.204;22.552;2024-01-30T11:38:01;12.70;62.60
42965;DHT22;28604;51.204;22.552;2024-01-30T11:40:28;12.70;63.00
42965;DHT22;28604;51.204;22.552;2024-01-30T11:42:56;12.70;64.00
42965;DHT22;28604;51.204;22.552;2024-01-30T11:45:23;12.60;64.70
42965;DHT22;28604;51.204;22.552;2024-01-30T11:47:49;12.60;62.10
42965;DHT22;28604;51.204;22.552;2024-01-30T11:50:15;12.50;62.90
42965;DHT22;28604;51.204;22.552;2024-01-30T11:52:42;12.50;63.20
42965;DHT22;28604;51.204;22.552;2024-01-30T11:55:09;12.50;63.60
42965;DHT22;28604;51.204;22.552;2024-01-30T11:57:36;12.50;63.60
42965;DHT22;28604;51.204;22.552;2024-01-30T12:00:05;12.40;63.30
42965;DHT22;28604;51.204;22.552;2024-01-30T12:02:36;12.40;63.60
42965;DHT22;28604;51.204;22.552;2024-01-30T12:05:06;12.50;61.90
42965;DHT22;28604;51.204;22.552;2024-01-30T12:07:36;12.40;62.60
42965;DHT22;28604;51.204;22.552;2024-01-30T12:10:02;12.30;63.20
42965;DHT22;28604;51.204;22.552;2024-01-30T12:12:29;12.20;62.60
42965;DHT22;28604;51.204;22.552;2024-01-30T12:14:56;12.20;62.50
42965;DHT22;28604;51.204;22.552;2024-01-30T12:17:29;12.10;61.80
42965;DHT22;28604;51.204;22.552;2024-01-30T12:20:17;12.00;61.10
42965;DHT22;28604;51.204;22.552;2024-01-30T12:22:45;12.00;62.80
42965;DHT22;28604;51.204;22.552;2024-01-30T12:25:16;12.00;64.90
42965;DHT22;28604;51.204;22.552;2024-01-30T12:27:44;12.00;62.70
42965;DHT22;28604;51.204;22.552;2024-01-30T12:30:12;12.00;62.50
42965;DHT22;28604;51.204;22.552;2024-01-30T12:32:41;12.10;62.40
42965;DHT22;28604;51.204;22.552;2024-01-30T12:35:12;12.10;63.80
42965;DHT22;28604;51.204;22.552;2024-01-30T12:37:43;12.00;62.60
42965;DHT22;28604;51.204;22.552;2024-01-30T12:40:10;12.00;63.10
42965;DHT22;28604;51.204;22.552;2024-01-30T12:42:37;12.00;63.40
42965;DHT22;28604;51.204;22.552;2024-01-30T12:45:03;12.10;63.50
42965;DHT22;28604;51.204;22.552;2024-01-30T12:47:33;12.10;63.10
42965;DHT22;28604;51.204;22.552;2024-01-30T12:49:58;12.10;63.00
42965;DHT22;28604;51.204;22.552;2024-01-30T12:52:25;12.10;62.80
42965;DHT22;28604;51.204;22.552;2024-01-30T12:54:51;12.10;63.30
42965;DHT22;28604;51.204;22.552;2024-01-30T12:57:18;12.00;63.40
42965;DHT22;28604;51.204;22.552;2024-01-30T12:59:45;12.00;63.50
42965;DHT22;28604;51.204;22.552;2024-01-30T13:02:15;12.00;63.90
42965;DHT22;28604;51.204;22.552;2024-01-30T13:04:41;11.90;62.80
42965;DHT22;28604;51.204;22.552;2024-01-30T13:07:07;11.90;64.10
42965;DHT22;28604;51.204;22.552;2024-01-30T13:09:33;11.90;62.70
42965;DHT22;28604;51.204;22.552;2024-01-30T13:12:00;11.80;62.20
42965;DHT22;28604;51.204;22.552;2024-01-30T13:14:26;11.80;62.40
42965;DHT22;28604;51.204;22.552;2024-01-30T13:16:52;11.80;63.10
42965;DHT22;28604;51.204;22.552;2024-01-30T13:19:20;11.80;63.30
42965;DHT22;28604;51.204;22.552;2024-01-30T13:21:47;11.80;64.10
42965;DHT22;28604;51.204;22.552;2024-01-30T13:24:13;11.80;64.00
42965;DHT22;28604;51.204;22.552;2024-01-30T13:26:40;11.80;63.30
42965;DHT22;28604;51.204;22.552;2024-01-30T13:29:05;11.80;63.50
42965;DHT22;28604;51.204;22.552;2024-01-30T13:31:32;11.80;63.40
42965;DHT22;28604;51.204;22.552;2024-01-30T13:33:57;11.80;63.30
42965;DHT22;28604;51.204;22.552;2024-01-30T13:36:24;11.70;63.60
42965;DHT22;28604;51.204;22.552;2024-01-30T13:38:49;11.60;63.30
42965;DHT22;28604;51.204;22.552;2024-01-30T13:41:16;11.60;63.10
42965;DHT22;28604;51.204;22.552;2024-01-30T13:43:43;11.50;63.90
42965;DHT22;28604;51.204;22.552;2024-01-30T13:46:10;11.50;63.60
42965;DHT22;28604;51.204;22.552;2024-01-30T13:48:36;11.50;63.90
42965;DHT22;28604;51.204;22.552;2024-01-30T13:51:02;11.40;64.30
42965;DHT22;28604;51.204;22.552;2024-01-30T13:53:28;11.40;63.50
42965;DHT22;28604;51.204;22.552;2024-01-30T13:55:54;11.30;63.00
42965;DHT22;28604;51.204;22.552;2024-01-30T13:58:20;11.30;64.10
42965;DHT22;28604;51.204;22.552;2024-01-30T14:00:47;11.20;65.10
42965;DHT22;28604;51.204;22.552;2024-01-30T14:03:12;11.10;64.60
42965;DHT22;28604;51.204;22.552;2024-01-30T14:05:39;11.10;65.70
42965;DHT22;28604;51.204;22.552;2024-01-30T14:08:06;11.10;65.10
42965;DHT22;28604;51.204;22.552;2024-01-30T14:10:33;11.10;64.90
42965;DHT22;28604;51.204;22.552;2024-01-30T14:12:59;10.90;64.80
42965;DHT22;28604;51.204;22.552;2024-01-30T14:15:25;10.90;64.00
42965;DHT22;28604;51.204;22.552;2024-01-30T14:17:51;10.90;63.60
42965;DHT22;28604;51.204;22.552;2024-01-30T14:20:17;10.90;65.00
42965;DHT22;28604;51.204;22.552;2024-01-30T14:22:43;10.90;65.60
42965;DHT22;28604;51.204;22.552;2024-01-30T14:25:09;10.80;64.40
42965;DHT22;28604;51.204;22.552;2024-01-30T14:27:36;10.70;66.00
42965;DHT22;28604;51.204;22.552;2024-01-30T14:30:02;10.60;65.20
42965;DHT22;28604;51.204;22.552;2024-01-30T14:32:31;10.60;65.80
42965;DHT22;28604;51.204;22.552;2024-01-30T14:34:57;10.50;64.80
42965;DHT22;28604;51.204;22.552;2024-01-30T14:37:23;10.40;65.80
42965;DHT22;28604;51.204;22.552;2024-01-30T14:39:49;10.40;66.10
42965;DHT22;28604;51.204;22.552;2024-01-30T14:42:15;10.40;65.00
42965;DHT22;28604;51.204;22.552;2024-01-30T14:44:42;10.30;65.40
42965;DHT22;28604;51.204;22.552;2024-01-30T14:47:08;10.20;65.20
42965;DHT22;28604;51.204;22.552;2024-01-30T14:49:34;10.20;65.10
42965;DHT22;28604;51.204;22.552;2024-01-30T14:52:00;10.10;65.50
42965;DHT22;28604;51.204;22.552;2024-01-30T14:54:27;10.10;65.70
42965;DHT22;28604;51.204;22.552;2024-01-30T14:56:55;10.00;65.00
42965;DHT22;28604;51.204;22.552;2024-01-30T14:59:21;9.90;65.50
42965;DHT22;28604;51.204;22.552;2024-01-30T15:01:47;9.80;65.70
42965;DHT22;28604;51.204;22.552;2024-01-30T15:04:14;9.80;65.20
42965;DHT22;28604;51.204;22.552;2024-01-30T15:06:40;9.70;66.10
42965;DHT22;28604;51.204;22.552;2024-01-30T15:09:11;9.60;66.20
42965;DHT22;28604;51.204;22.552;2024-01-30T15:11:44;9.50;66.10
42965;DHT22;28604;51.204;22.552;2024-01-30T15:14:10;9.40;66.70
42965;DHT22;28604;51.204;22.552;2024-01-30T15:42:45;8.10;68.70
42965;DHT22;28604;51.204;22.552;2024-01-30T15:45:11;8.00;68.90
42965;DHT22;28604;51.204;22.552;2024-01-30T15:47:37;7.80;69.00
42965;DHT22;28604;51.204;22.552;2024-01-30T15:50:04;7.70;69.10
42965;DHT22;28604;51.204;22.552;2024-01-30T15:52:30;7.60;69.40
42965;DHT22;28604;51.204;22.552;2024-01-30T15:54:56;7.50;69.80
42965;DHT22;28604;51.204;22.552;2024-01-30T15:57:22;7.30;70.10
42965;DHT22;28604;51.204;22.552;2024-01-30T15:59:48;7.20;71.10